sensor_id;sensor_type;location;lat;lon;timestamp;pressure;altitude;pressure_sealevel;temperature;humidity
77662;BME280;69666;52.136;5.424;2023-09-19T00:00:57;100861.97;;;14.89;100.00
77662;BME280;69666;52.136;5.424;2023-09-19T00:03:27;100860.31;;;14.87;100.00
77662;BME280;69666;52.136;5.424;2023-09-19T00:05:58;100864.94;;;14.83;100.00
77662;BME280;69666;52.136;5.424;2023-09-19T00:08:28;100866.88;;;14.81;100.00
77662;BME280;69666;52.136;5.424;2023-09-19T00:10:57;100868.75;;;14.79;100.00
77662;BME280;69666;52.136;5.424;2023-09-19T00:13:32;100872.44;;;14.77;100.00
77662;BME280;69666;52.136;5.424;2023-09-19T00:16:11;100876.94;;;14.76;100.00
77662;BME280;69666;52.136;5.424;2023-09-19T00:18:40;100874.34;;;14.75;100.00
77662;BME280;69666;52.136;5.424;2023-09-19T00:21:10;100883.25;;;14.75;100.00
77662;BME280;69666;52.136;5.424;2023-09-19T00:23:39;100884.97;;;14.76;100.00
77662;BME280;69666;52.136;5.424;2023-09-19T00:26:09;100879.75;;;14.73;100.00
77662;BME280;69666;52.136;5.424;2023-09-19T00:28:39;100878.97;;;14.71;100.00
77662;BME280;69666;52.136;5.424;2023-09-19T00:31:10;100888.91;;;14.69;100.00
77662;BME280;69666;52.136;5.424;2023-09-19T00:33:39;100888.03;;;14.69;100.00
77662;BME280;69666;52.136;5.424;2023-09-19T00:36:09;100891.66;;;14.68;100.00
77662;BME280;69666;52.136;5.424;2023-09-19T00:38:38;100895.34;;;14.65;100.00
77662;BME280;69666;52.136;5.424;2023-09-19T00:41:07;100895.28;;;14.67;100.00
77662;BME280;69666;52.136;5.424;2023-09-19T00:43:37;100897.91;;;14.68;100.00
77662;BME280;69666;52.136;5.424;2023-09-19T00:46:08;100900.56;;;14.68;100.00
77662;BME280;69666;52.136;5.424;2023-09-19T00:48:42;100893.47;;;14.67;100.00
77662;BME280;69666;52.136;5.424;2023-09-19T00:51:14;100899.63;;;14.69;100.00
77662;BME280;69666;52.136;5.424;2023-09-19T00:53:47;100900.50;;;14.70;100.00
77662;BME280;69666;52.136;5.424;2023-09-19T00:56:16;100902.13;;;14.72;100.00
77662;BME280;69666;52.136;5.424;2023-09-19T00:58:47;100898.69;;;14.70;100.00
77662;BME280;69666;52.136;5.424;2023-09-19T01:01:17;100904.81;;;14.72;100.00
77662;BME280;69666;52.136;5.424;2023-09-19T01:03:47;100908.44;;;14.71;100.00
77662;BME280;69666;52.136;5.424;2023-09-19T01:06:18;100918.13;;;14.74;100.00
77662;BME280;69666;52.136;5.424;2023-09-19T01:08:47;100913.56;;;14.76;100.00
77662;BME280;69666;52.136;5.424;2023-09-19T01:11:33;100918.00;;;14.77;100.00
77662;BME280;69666;52.136;5.424;2023-09-19T01:17:32;100913.66;;;14.74;100.00
77662;BME280;69666;52.136;5.424;2023-09-19T01:20:25;100910.97;;;14.74;100.00
77662;BME280;69666;52.136;5.424;2023-09-19T01:23:55;100911.91;;;14.73;100.00
77662;BME280;69666;52.136;5.424;2023-09-19T01:31:53;100912.22;;;14.67;100.00
77662;BME280;69666;52.136;5.424;2023-09-19T01:34:23;100919.47;;;14.65;100.00
77662;BME280;69666;52.136;5.424;2023-09-19T01:36:54;100915.91;;;14.65;100.00
77662;BME280;69666;52.136;5.424;2023-09-19T01:39:23;100915.06;;;14.64;100.00
77662;BME280;69666;52.136;5.424;2023-09-19T01:42:21;100917.72;;;14.64;100.00
77662;BME280;69666;52.136;5.424;2023-09-19T01:45:12;100915.13;;;14.63;100.00
77662;BME280;69666;52.136;5.424;2023-09-19T01:47:49;100918.66;;;14.63;100.00
77662;BME280;69666;52.136;5.424;2023-09-19T01:51:06;100925.75;;;14.64;100.00
77662;BME280;69666;52.136;5.424;2023-09-19T01:53:33;100928.59;;;14.61;100.00
77662;BME280;69666;52.136;5.424;2023-09-19T01:56:09;100928.69;;;14.59;100.00
77662;BME280;69666;52.136;5.424;2023-09-19T01:58:46;100928.69;;;14.59;100.00
77662;BME280;69666;52.136;5.424;2023-09-19T02:01:25;100929.56;;;14.60;100.00
77662;BME280;69666;52.136;5.424;2023-09-19T02:03:55;100927.81;;;14.59;100.00
77662;BME280;69666;52.136;5.424;2023-09-19T02:06:25;100928.69;;;14.59;100.00
77662;BME280;69666;52.136;5.424;2023-09-19T02:08:56;100927.88;;;14.57;100.00
77662;BME280;69666;52.136;5.424;2023-09-19T02:11:25;100929.69;;;14.57;100.00
77662;BME280;69666;52.136;5.424;2023-09-19T02:13:56;100920.94;;;14.53;100.00
77662;BME280;69666;52.136;5.424;2023-09-19T02:16:26;100921.00;;;14.52;100.00
77662;BME280;69666;52.136;5.424;2023-09-19T02:18:57;100914.84;;;14.50;100.00
77662;BME280;69666;52.136;5.424;2023-09-19T02:21:28;100914.84;;;14.50;100.00
77662;BME280;69666;52.136;5.424;2023-09-19T02:23:58;100925.75;;;14.47;100.00
77662;BME280;69666;52.136;5.424;2023-09-19T02:26:28;100926.69;;;14.46;100.00
77662;BME280;69666;52.136;5.424;2023-09-19T02:28:58;100926.75;;;14.44;100.00
77662;BME280;69666;52.136;5.424;2023-09-19T02:31:29;100926.81;;;14.43;100.00
77662;BME280;69666;52.136;5.424;2023-09-19T02:33:59;100935.84;;;14.40;100.00
77662;BME280;69666;52.136;5.424;2023-09-19T02:36:29;100928.75;;;14.39;100.00
77662;BME280;69666;52.136;5.424;2023-09-19T02:38:59;100935.91;;;14.39;100.00
77662;BME280;69666;52.136;5.424;2023-09-19T02:41:29;100938.69;;;14.37;100.00
77662;BME280;69666;52.136;5.424;2023-09-19T02:44:01;100932.53;;;14.35;100.00
77662;BME280;69666;52.136;5.424;2023-09-19T02:46:30;100937.28;;;14.29;100.00
77662;BME280;69666;52.136;5.424;2023-09-19T02:48:59;100934.78;;;14.25;100.00
77662;BME280;69666;52.136;5.424;2023-09-19T02:51:29;100930.44;;;14.23;100.00
77662;BME280;69666;52.136;5.424;2023-09-19T02:53:59;100937.72;;;14.19;100.00
77662;BME280;69666;52.136;5.424;2023-09-19T02:56:31;100938.84;;;14.15;100.00
77662;BME280;69666;52.136;5.424;2023-09-19T02:59:01;100933.69;;;14.11;100.00
77662;BME280;69666;52.136;5.424;2023-09-19T03:01:31;100941.78;;;14.09;100.00
77662;BME280;69666;52.136;5.424;2023-09-19T03:04:02;100936.66;;;14.05;100.00
77662;BME280;69666;52.136;5.424;2023-09-19T03:06:32;100939.53;;;14.00;100.00
77662;BME280;69666;52.136;5.424;2023-09-19T03:09:01;100947.63;;;13.99;100.00
77662;BME280;69666;52.136;5.424;2023-09-19T03:11:34;100927.31;;;13.95;100.00
77662;BME280;69666;52.136;5.424;2023-09-19T03:14:03;100932.06;;;13.88;100.00
77662;BME280;69666;52.136;5.424;2023-09-19T03:16:33;100929.63;;;13.83;100.00
77662;BME280;69666;52.136;5.424;2023-09-19T03:19:03;100932.50;;;13.79;100.00
77662;BME280;69666;52.136;5.424;2023-09-19T03:21:33;100937.06;;;13.77;100.00
77662;BME280;69666;52.136;5.424;2023-09-19T03:24:03;100939.97;;;13.72;100.00
77662;BME280;69666;52.136;5.424;2023-09-19T03:26:33;100930.44;;;13.65;100.00
77662;BME280;69666;52.136;5.424;2023-09-19T03:29:05;100942.31;;;13.60;100.00
77662;BME280;69666;52.136;5.424;2023-09-19T03:31:34;100944.31;;;13.55;100.00
77662;BME280;69666;52.136;5.424;2023-09-19T03:34:07;100945.59;;;13.46;100.00
77662;BME280;69666;52.136;5.424;2023-09-19T03:36:37;100943.03;;;13.43;100.00
77662;BME280;69666;52.136;5.424;2023-09-19T03:39:06;100942.19;;;13.42;100.00
77662;BME280;69666;52.136;5.424;2023-09-19T03:41:36;100945.94;;;13.38;100.00
77662;BME280;69666;52.136;5.424;2023-09-19T03:44:05;100932.75;;;13.34;100.00
77662;BME280;69666;52.136;5.424;2023-09-19T03:46:35;100932.81;;;13.32;100.00
77662;BME280;69666;52.136;5.424;2023-09-19T03:49:05;100927.69;;;13.28;100.00
77662;BME280;69666;52.136;5.424;2023-09-19T03:51:35;100921.66;;;13.23;100.00
77662;BME280;69666;52.136;5.424;2023-09-19T03:54:05;100930.84;;;13.17;100.00
77662;BME280;69666;52.136;5.424;2023-09-19T03:56:35;100939.78;;;13.16;100.00
77662;BME280;69666;52.136;5.424;2023-09-19T03:59:04;100942.56;;;13.13;100.00
77662;BME280;69666;52.136;5.424;2023-09-19T04:01:34;100941.75;;;13.11;100.00
77662;BME280;69666;52.136;5.424;2023-09-19T04:04:03;100953.44;;;13.08;100.00
77662;BME280;69666;52.136;5.424;2023-09-19T04:06:37;100957.19;;;13.04;100.00
77662;BME280;69666;52.136;5.424;2023-09-19T04:09:06;100956.38;;;13.02;100.00
77662;BME280;69666;52.136;5.424;2023-09-19T04:11:38;100961.94;;;12.98;100.00
77662;BME280;69666;52.136;5.424;2023-09-19T04:14:08;100963.09;;;12.91;100.00
77662;BME280;69666;52.136;5.424;2023-09-19T04:16:37;100975.50;;;12.92;100.00
77662;BME280;69666;52.136;5.424;2023-09-19T04:19:07;100969.38;;;12.90;100.00
77662;BME280;69666;52.136;5.424;2023-09-19T04:21:37;100976.50;;;12.89;100.00
77662;BME280;69666;52.136;5.424;2023-09-19T04:24:06;100973.03;;;12.87;100.00
77662;BME280;69666;52.136;5.424;2023-09-19T04:26:36;100975.78;;;12.86;100.00
77662;BME280;69666;52.136;5.424;2023-09-19T04:29:05;100989.13;;;12.86;100.00
77662;BME280;69666;52.136;5.424;2023-09-19T04:31:34;100990.19;;;12.82;100.00
77662;BME280;69666;52.136;5.424;2023-09-19T04:34:05;100992.16;;;12.76;100.00
77662;BME280;69666;52.136;5.424;2023-09-19T04:36:36;100997.59;;;12.75;100.00
77662;BME280;69666;52.136;5.424;2023-09-19T04:39:05;101006.47;;;12.75;100.00
77662;BME280;69666;52.136;5.424;2023-09-19T04:41:35;101015.53;;;12.71;100.00
77662;BME280;69666;52.136;5.424;2023-09-19T04:44:06;101015.47;;;12.73;100.00
77662;BME280;69666;52.136;5.424;2023-09-19T04:46:36;101015.47;;;12.73;100.00
77662;BME280;69666;52.136;5.424;2023-09-19T04:49:05;101008.44;;;12.70;100.00
77662;BME280;69666;52.136;5.424;2023-09-19T04:51:34;101009.31;;;12.71;100.00
77662;BME280;69666;52.136;5.424;2023-09-19T04:54:04;101012.91;;;12.70;100.00
77662;BME280;69666;52.136;5.424;2023-09-19T04:56:34;101003.22;;;12.67;100.00
77662;BME280;69666;52.136;5.424;2023-09-19T04:59:04;101005.94;;;12.66;100.00
77662;BME280;69666;52.136;5.424;2023-09-19T05:01:33;100994.47;;;12.64;100.00
77662;BME280;69666;52.136;5.424;2023-09-19T05:04:02;101005.22;;;12.62;100.00
77662;BME280;69666;52.136;5.424;2023-09-19T05:06:33;101004.28;;;12.63;100.00
77662;BME280;69666;52.136;5.424;2023-09-19T05:09:03;101005.22;;;12.62;100.00
77662;BME280;69666;52.136;5.424;2023-09-19T05:11:33;101011.44;;;12.63;100.00
77662;BME280;69666;52.136;5.424;2023-09-19T05:14:03;101007.78;;;12.65;100.00
77662;BME280;69666;52.136;5.424;2023-09-19T05:16:32;101013.13;;;12.65;100.00
77662;BME280;69666;52.136;5.424;2023-09-19T05:19:02;101017.63;;;12.63;100.00
77662;BME280;69666;52.136;5.424;2023-09-19T05:21:31;101015.84;;;12.64;100.00
77662;BME280;69666;52.136;5.424;2023-09-19T05:24:01;101016.56;;;12.67;100.00
77662;BME280;69666;52.136;5.424;2023-09-19T05:26:30;101015.63;;;12.68;100.00
77662;BME280;69666;52.136;5.424;2023-09-19T05:29:00;101014.72;;;12.69;100.00
77662;BME280;69666;52.136;5.424;2023-09-19T05:31:31;101017.31;;;12.71;100.00
77662;BME280;69666;52.136;5.424;2023-09-19T05:34:00;101012.97;;;12.68;100.00
77662;BME280;69666;52.136;5.424;2023-09-19T05:36:30;101017.31;;;12.71;100.00
77662;BME280;69666;52.136;5.424;2023-09-19T05:38:59;101007.50;;;12.71;100.00
77662;BME280;69666;52.136;5.424;2023-09-19T05:41:28;101010.13;;;12.73;100.00
77662;BME280;69666;52.136;5.424;2023-09-19T05:43:58;101006.53;;;12.74;100.00
77662;BME280;69666;52.136;5.424;2023-09-19T05:46:30;101008.31;;;12.73;100.00
77662;BME280;69666;52.136;5.424;2023-09-19T05:49:00;101004.66;;;12.76;100.00
77662;BME280;69666;52.136;5.424;2023-09-19T05:51:31;101011.66;;;12.78;100.00
77662;BME280;69666;52.136;5.424;2023-09-19T05:54:00;101019.56;;;12.82;100.00
77662;BME280;69666;52.136;5.424;2023-09-19T05:56:29;101024.84;;;12.83;100.00
77662;BME280;69666;52.136;5.424;2023-09-19T05:58:59;101030.06;;;12.86;100.00
77662;BME280;69666;52.136;5.424;2023-09-19T06:01:28;101024.59;;;12.89;100.00
77662;BME280;69666;52.136;5.424;2023-09-19T06:04:00;101020.91;;;12.92;100.00
77662;BME280;69666;52.136;5.424;2023-09-19T06:06:29;101026.97;;;12.97;100.00
77662;BME280;69666;52.136;5.424;2023-09-19T06:08:58;101033.09;;;12.99;100.00
77662;BME280;69666;52.136;5.424;2023-09-19T06:11:28;101034.72;;;13.03;100.00
77662;BME280;69666;52.136;5.424;2023-09-19T06:14:00;101045.34;;;13.04;100.00
77662;BME280;69666;52.136;5.424;2023-09-19T06:16:30;101044.34;;;13.07;100.00
77662;BME280;69666;52.136;5.424;2023-09-19T06:19:02;101045.22;;;13.07;100.00
77662;BME280;69666;52.136;5.424;2023-09-19T06:21:34;101043.31;;;13.09;100.00
77662;BME280;69666;52.136;5.424;2023-09-19T06:24:04;101043.22;;;13.12;100.00
77662;BME280;69666;52.136;5.424;2023-09-19T06:26:33;101045.84;;;13.14;100.00
77662;BME280;69666;52.136;5.424;2023-09-19T06:29:02;101041.38;;;13.14;100.00
77662;BME280;69666;52.136;5.424;2023-09-19T06:31:32;101044.00;;;13.16;100.00
77662;BME280;69666;52.136;5.424;2023-09-19T06:34:01;101050.06;;;13.20;100.00
77662;BME280;69666;52.136;5.424;2023-09-19T06:36:31;101037.41;;;13.25;100.00
77662;BME280;69666;52.136;5.424;2023-09-19T06:39:00;101034.66;;;13.26;100.00
77662;BME280;69666;52.136;5.424;2023-09-19T06:41:32;101032.75;;;13.30;100.00
77662;BME280;69666;52.136;5.424;2023-09-19T06:44:06;101035.13;;;13.36;100.00
77662;BME280;69666;52.136;5.424;2023-09-19T06:46:35;101028.81;;;13.38;100.00
77662;BME280;69666;52.136;5.424;2023-09-19T06:49:12;101033.06;;;13.42;100.00
77662;BME280;69666;52.136;5.424;2023-09-19T06:51:41;101032.94;;;13.45;100.00
77662;BME280;69666;52.136;5.424;2023-09-19T06:54:11;101045.19;;;13.51;100.00
77662;BME280;69666;52.136;5.424;2023-09-19T06:56:40;101037.00;;;13.54;100.00
77662;BME280;69666;52.136;5.424;2023-09-19T06:59:10;101038.63;;;13.58;100.00
77662;BME280;69666;52.136;5.424;2023-09-19T07:01:42;101033.09;;;13.63;100.00
77662;BME280;69666;52.136;5.424;2023-09-19T07:04:12;101031.06;;;13.68;100.00
77662;BME280;69666;52.136;5.424;2023-09-19T07:06:42;101030.78;;;13.74;100.00
77662;BME280;69666;52.136;5.424;2023-09-19T07:09:13;101033.34;;;13.77;100.00
77662;BME280;69666;52.136;5.424;2023-09-19T07:11:43;101032.28;;;13.81;100.00
77662;BME280;69666;52.136;5.424;2023-09-19T07:14:12;101033.84;;;13.85;100.00
77662;BME280;69666;52.136;5.424;2023-09-19T07:16:42;101028.19;;;13.93;100.00
77662;BME280;69666;52.136;5.424;2023-09-19T07:19:12;101035.94;;;13.99;100.00
77662;BME280;69666;52.136;5.424;2023-09-19T07:21:43;101037.47;;;14.04;100.00
77662;BME280;69666;52.136;5.424;2023-09-19T07:24:12;101049.69;;;14.10;100.00
77662;BME280;69666;52.136;5.424;2023-09-19T07:26:42;101042.47;;;14.12;100.00
77662;BME280;69666;52.136;5.424;2023-09-19T07:29:11;101055.56;;;14.18;100.00
77662;BME280;69666;52.136;5.424;2023-09-19T07:31:40;101051.00;;;14.20;100.00
77662;BME280;69666;52.136;5.424;2023-09-19T07:34:10;101052.63;;;14.24;100.00
77662;BME280;69666;52.136;5.424;2023-09-19T07:36:39;101065.88;;;14.27;100.00
77662;BME280;69666;52.136;5.424;2023-09-19T07:39:10;101068.19;;;14.35;100.00
77662;BME280;69666;52.136;5.424;2023-09-19T07:41:50;101058.16;;;14.40;100.00
77662;BME280;69666;52.136;5.424;2023-09-19T07:44:19;101055.41;;;14.41;100.00
77662;BME280;69666;52.136;5.424;2023-09-19T07:46:49;101056.94;;;14.47;100.00
77662;BME280;69666;52.136;5.424;2023-09-19T07:49:19;101058.31;;;14.55;100.00
77662;BME280;69666;52.136;5.424;2023-09-19T07:51:48;101070.53;;;14.61;100.00
77662;BME280;69666;52.136;5.424;2023-09-19T07:54:17;101066.72;;;14.67;100.00
77662;BME280;69666;52.136;5.424;2023-09-19T07:56:47;101068.31;;;14.71;100.00
77662;BME280;69666;52.136;5.424;2023-09-19T07:59:17;101059.97;;;14.77;100.00
77662;BME280;69666;52.136;5.424;2023-09-19T08:01:46;101053.44;;;14.82;100.00
77662;BME280;69666;52.136;5.424;2023-09-19T08:04:16;101062.28;;;14.84;100.00
77662;BME280;69666;52.136;5.424;2023-09-19T08:06:45;101067.44;;;14.89;100.00
77662;BME280;69666;52.136;5.424;2023-09-19T08:09:14;101065.38;;;14.94;100.00
77662;BME280;69666;52.136;5.424;2023-09-19T08:11:52;101063.44;;;14.97;100.00
77662;BME280;69666;52.136;5.424;2023-09-19T08:14:22;101063.03;;;15.05;100.00
77662;BME280;69666;52.136;5.424;2023-09-19T08:16:57;101060.00;;;15.13;100.00
77662;BME280;69666;52.136;5.424;2023-09-19T08:19:29;101056.94;;;15.20;100.00
77662;BME280;69666;52.136;5.424;2023-09-19T08:22:00;101058.59;;;15.23;100.00
77662;BME280;69666;52.136;5.424;2023-09-19T08:24:30;101049.63;;;15.24;100.00
77662;BME280;69666;52.136;5.424;2023-09-19T08:27:01;101046.63;;;15.30;100.00
77662;BME280;69666;52.136;5.424;2023-09-19T08:29:32;101052.84;;;15.30;100.00
77662;BME280;69666;52.136;5.424;2023-09-19T08:32:03;101047.09;;;15.38;100.00
77662;BME280;69666;52.136;5.424;2023-09-19T08:34:38;101054.66;;;15.47;100.00
77662;BME280;69666;52.136;5.424;2023-09-19T08:37:07;101050.88;;;15.51;100.00
77662;BME280;69666;52.136;5.424;2023-09-19T08:39:38;101045.41;;;15.54;100.00
77662;BME280;69666;52.136;5.424;2023-09-19T08:42:07;101042.59;;;15.57;100.00
77662;BME280;69666;52.136;5.424;2023-09-19T08:44:37;101052.97;;;15.63;100.00
77662;BME280;69666;52.136;5.424;2023-09-19T08:47:15;101042.78;;;15.70;100.00
77662;BME280;69666;52.136;5.424;2023-09-19T08:50:11;101039.63;;;15.79;100.00
77662;BME280;69666;52.136;5.424;2023-09-19T08:52:47;101046.41;;;15.86;100.00
77662;BME280;69666;52.136;5.424;2023-09-19T08:55:27;101041.78;;;15.90;100.00
77662;BME280;69666;52.136;5.424;2023-09-19T08:58:03;101031.56;;;15.96;100.00
77662;BME280;69666;52.136;5.424;2023-09-19T09:00:35;101042.91;;;16.01;100.00
77662;BME280;69666;52.136;5.424;2023-09-19T09:03:05;101043.31;;;16.11;100.00
77662;BME280;69666;52.136;5.424;2023-09-19T09:05:39;101036.13;;;16.27;100.00
77662;BME280;69666;52.136;5.424;2023-09-19T09:08:12;101039.19;;;16.37;100.00
77662;BME280;69666;52.136;5.424;2023-09-19T09:10:45;101042.16;;;16.48;100.00
77662;BME280;69666;52.136;5.424;2023-09-19T09:13:37;101043.44;;;16.57;100.00
77662;BME280;69666;52.136;5.424;2023-09-19T09:16:12;101036.97;;;16.61;100.00
77662;BME280;69666;52.136;5.424;2023-09-19T09:18:49;101042.97;;;16.66;100.00
77662;BME280;69666;52.136;5.424;2023-09-19T09:21:31;101042.81;;;16.69;100.00
77662;BME280;69666;52.136;5.424;2023-09-19T09:24:28;101029.38;;;16.85;100.00
77662;BME280;69666;52.136;5.424;2023-09-19T09:26:58;101033.34;;;16.93;100.00
77662;BME280;69666;52.136;5.424;2023-09-19T09:29:47;101036.38;;;17.03;100.00
77662;BME280;69666;52.136;5.424;2023-09-19T09:32:28;101027.53;;;17.01;100.00
77662;BME280;69666;52.136;5.424;2023-09-19T09:34:59;101027.72;;;16.98;100.00
77662;BME280;69666;52.136;5.424;2023-09-19T09:37:29;101022.34;;;16.98;100.00
77662;BME280;69666;52.136;5.424;2023-09-19T09:40:01;101019.22;;;17.05;100.00
77662;BME280;69666;52.136;5.424;2023-09-19T09:42:47;101021.59;;;17.10;100.00
77662;BME280;69666;52.136;5.424;2023-09-19T09:45:26;101010.06;;;17.24;100.00
77662;BME280;69666;52.136;5.424;2023-09-19T09:48:02;101007.69;;;17.33;100.00
77662;BME280;69666;52.136;5.424;2023-09-19T09:50:34;101009.16;;;17.39;100.00
77662;BME280;69666;52.136;5.424;2023-09-19T09:53:26;101015.84;;;17.62;100.00
77662;BME280;69666;52.136;5.424;2023-09-19T09:56:07;101014.28;;;17.73;100.00
77662;BME280;69666;52.136;5.424;2023-09-19T09:58:50;101002.31;;;17.63;100.00
77662;BME280;69666;52.136;5.424;2023-09-19T10:01:23;101009.06;;;17.70;100.00
77662;BME280;69666;52.136;5.424;2023-09-19T10:03:58;100999.53;;;17.65;100.00
77662;BME280;69666;52.136;5.424;2023-09-19T10:06:41;100995.31;;;17.75;100.00
77662;BME280;69666;52.136;5.424;2023-09-19T10:09:16;101023.19;;;17.74;100.00
77662;BME280;69666;52.136;5.424;2023-09-19T10:12:05;101021.69;;;17.84;100.00
77662;BME280;69666;52.136;5.424;2023-09-19T10:14:42;101018.00;;;17.71;100.00
77662;BME280;69666;52.136;5.424;2023-09-19T10:17:35;101004.63;;;17.69;100.00
77662;BME280;69666;52.136;5.424;2023-09-19T10:20:06;101017.31;;;17.67;100.00
77662;BME280;69666;52.136;5.424;2023-09-19T10:22:38;101009.78;;;17.58;100.00
77662;BME280;69666;52.136;5.424;2023-09-19T10:25:10;101024.66;;;17.49;100.00
77662;BME280;69666;52.136;5.424;2023-09-19T10:27:41;101004.78;;;17.52;100.00
77662;BME280;69666;52.136;5.424;2023-09-19T10:30:12;100999.59;;;17.63;100.00
77662;BME280;69666;52.136;5.424;2023-09-19T10:32:45;101000.59;;;17.76;100.00
77662;BME280;69666;52.136;5.424;2023-09-19T10:35:17;100996.19;;;17.90;100.00
77662;BME280;69666;52.136;5.424;2023-09-19T10:37:48;100982.66;;;18.05;100.00
77662;BME280;69666;52.136;5.424;2023-09-19T10:40:19;100977.31;;;18.32;100.00
77662;BME280;69666;52.136;5.424;2023-09-19T10:43:02;100958.34;;;18.62;100.00
77662;BME280;69666;52.136;5.424;2023-09-19T10:45:35;100971.34;;;18.82;100.00
77662;BME280;69666;52.136;5.424;2023-09-19T10:48:07;100965.72;;;18.73;100.00
77662;BME280;69666;52.136;5.424;2023-09-19T10:51:18;100968.88;;;18.79;100.00
77662;BME280;69666;52.136;5.424;2023-09-19T10:53:55;100969.88;;;18.64;100.00
77662;BME280;69666;52.136;5.424;2023-09-19T10:56:32;100961.41;;;18.56;100.00
77662;BME280;69666;52.136;5.424;2023-09-19T10:59:17;100955.94;;;18.57;100.00
77662;BME280;69666;52.136;5.424;2023-09-19T11:01:55;100948.41;;;18.63;100.00
77662;BME280;69666;52.136;5.424;2023-09-19T11:04:36;100949.34;;;18.76;100.00
77662;BME280;69666;52.136;5.424;2023-09-19T11:07:12;100949.91;;;18.81;100.00
77662;BME280;69666;52.136;5.424;2023-09-19T11:15:08;100945.97;;;18.72;100.00
77662;BME280;69666;52.136;5.424;2023-09-19T11:17:45;100943.59;;;18.68;100.00
77662;BME280;69666;52.136;5.424;2023-09-19T11:20:36;100944.47;;;18.54;100.00
77662;BME280;69666;52.136;5.424;2023-09-19T11:23:18;100931.00;;;18.54;100.00
77662;BME280;69666;52.136;5.424;2023-09-19T11:25:51;100939.56;;;18.60;100.00
77662;BME280;69666;52.136;5.424;2023-09-19T11:28:29;100941.69;;;18.70;100.00
77662;BME280;69666;52.136;5.424;2023-09-19T11:40:09;100926.97;;;18.47;100.00
77662;BME280;69666;52.136;5.424;2023-09-19T11:42:46;100931.50;;;18.46;100.00
77662;BME280;69666;52.136;5.424;2023-09-19T11:48:24;100923.63;;;18.29;100.00
77662;BME280;69666;52.136;5.424;2023-09-19T11:50:53;100917.19;;;18.32;100.00
77662;BME280;69666;52.136;5.424;2023-09-19T11:53:31;100911.59;;;18.35;100.00
77662;BME280;69666;52.136;5.424;2023-09-19T11:56:01;100912.28;;;18.38;100.00
77662;BME280;69666;52.136;5.424;2023-09-19T11:58:31;100919.59;;;18.36;100.00
77662;BME280;69666;52.136;5.424;2023-09-19T12:01:02;100916.69;;;18.39;100.00
77662;BME280;69666;52.136;5.424;2023-09-19T12:03:46;100928.63;;;18.35;100.00
77662;BME280;69666;52.136;5.424;2023-09-19T12:06:16;100931.25;;;18.37;100.00
77662;BME280;69666;52.136;5.424;2023-09-19T12:08:45;100938.94;;;18.29;100.00
77662;BME280;69666;52.136;5.424;2023-09-19T12:11:17;100944.72;;;18.22;100.00
77662;BME280;69666;52.136;5.424;2023-09-19T12:13:48;100943.56;;;18.27;100.00
77662;BME280;69666;52.136;5.424;2023-09-19T12:16:19;100940.38;;;18.34;100.00
77662;BME280;69666;52.136;5.424;2023-09-19T12:18:52;100931.44;;;18.34;100.00
77662;BME280;69666;52.136;5.424;2023-09-19T12:21:39;100926.81;;;18.36;100.00
77662;BME280;69666;52.136;5.424;2023-09-19T12:24:13;100924.22;;;18.34;100.00
77662;BME280;69666;52.136;5.424;2023-09-19T12:26:47;100925.16;;;18.33;100.00
77662;BME280;69666;52.136;5.424;2023-09-19T12:29:21;100918.47;;;18.26;100.00
77662;BME280;69666;52.136;5.424;2023-09-19T12:31:55;100933.09;;;18.22;100.00
77662;BME280;69666;52.136;5.424;2023-09-19T12:34:31;100929.53;;;18.21;100.00
77662;BME280;69666;52.136;5.424;2023-09-19T12:37:15;100920.66;;;18.19;100.00
77662;BME280;69666;52.136;5.424;2023-09-19T12:40:08;100917.78;;;18.22;100.00
77662;BME280;69666;52.136;5.424;2023-09-19T12:42:47;100922.88;;;18.27;100.00
77662;BME280;69666;52.136;5.424;2023-09-19T12:45:20;100929.97;;;18.28;100.00
77662;BME280;69666;52.136;5.424;2023-09-19T12:51:00;100929.16;;;18.13;100.00
77662;BME280;69666;52.136;5.424;2023-09-19T12:53:39;100938.56;;;18.06;100.00
77662;BME280;69666;52.136;5.424;2023-09-19T12:56:13;100926.97;;;18.06;100.00
77662;BME280;69666;52.136;5.424;2023-09-19T12:58:58;100931.34;;;18.07;100.00
77662;BME280;69666;52.136;5.424;2023-09-19T13:01:31;100927.53;;;18.11;100.00
77662;BME280;69666;52.136;5.424;2023-09-19T13:04:20;100928.09;;;18.16;100.00
77662;BME280;69666;52.136;5.424;2023-09-19T13:06:58;100943.66;;;18.25;100.00
77662;BME280;69666;52.136;5.424;2023-09-19T13:09:29;100934.63;;;18.26;100.00
77662;BME280;69666;52.136;5.424;2023-09-19T13:12:36;100927.97;;;18.32;100.00
77662;BME280;69666;52.136;5.424;2023-09-19T13:15:14;100922.19;;;18.38;100.00
77662;BME280;69666;52.136;5.424;2023-09-19T13:17:49;100937.28;;;18.40;100.00
77662;BME280;69666;52.136;5.424;2023-09-19T13:20:26;100937.97;;;18.30;100.00
77662;BME280;69666;52.136;5.424;2023-09-19T13:22:56;100938.94;;;18.29;100.00
77662;BME280;69666;52.136;5.424;2023-09-19T13:25:34;100939.34;;;18.22;100.00
77662;BME280;69666;52.136;5.424;2023-09-19T13:28:05;100937.16;;;18.15;100.00
77662;BME280;69666;52.136;5.424;2023-09-19T13:30:37;100931.56;;;18.04;100.00
77662;BME280;69666;52.136;5.424;2023-09-19T13:33:11;100943.31;;;18.03;100.00
77662;BME280;69666;52.136;5.424;2023-09-19T13:35:47;100927.69;;;18.08;100.00
77662;BME280;69666;52.136;5.424;2023-09-19T13:38:16;100933.28;;;18.19;100.00
77662;BME280;69666;52.136;5.424;2023-09-19T13:40:46;100923.00;;;18.26;100.00